sensor_id;sensor_type;location;lat;lon;timestamp;P1;durP1;ratioP1;P2;durP2;ratioP2
13785;SDS011;47474;48.824;9.384;2024-01-16T00:02:03;4.37;;;2.97;;
13785;SDS011;47474;48.824;9.384;2024-01-16T00:04:30;4.13;;;2.70;;
13785;SDS011;47474;48.824;9.384;2024-01-16T00:06:58;6.03;;;3.07;;
13785;SDS011;47474;48.824;9.384;2024-01-16T00:09:25;4.67;;;3.23;;
13785;SDS011;47474;48.824;9.384;2024-01-16T00:11:51;3.90;;;2.70;;
13785;SDS011;47474;48.824;9.384;2024-01-16T00:14:18;5.43;;;3.23;;
13785;SDS011;47474;48.824;9.384;2024-01-16T00:16:44;9.13;;;3.63;;
13785;SDS011;47474;48.824;9.384;2024-01-16T00:19:12;5.87;;;3.03;;
13785;SDS011;47474;48.824;9.384;2024-01-16T00:21:39;7.60;;;3.60;;
13785;SDS011;47474;48.824;9.384;2024-01-16T00:24:07;4.43;;;2.70;;
13785;SDS011;47474;48.824;9.384;2024-01-16T00:26:34;4.20;;;3.57;;
13785;SDS011;47474;48.824;9.384;2024-01-16T00:29:00;4.40;;;3.37;;
13785;SDS011;47474;48.824;9.384;2024-01-16T00:31:27;4.30;;;3.60;;
13785;SDS011;47474;48.824;9.384;2024-01-16T00:33:53;5.00;;;3.07;;
13785;SDS011;47474;48.824;9.384;2024-01-16T00:36:20;3.60;;;2.93;;
13785;SDS011;47474;48.824;9.384;2024-01-16T00:38:46;5.03;;;3.23;;
13785;SDS011;47474;48.824;9.384;2024-01-16T00:41:14;5.13;;;3.47;;
13785;SDS011;47474;48.824;9.384;2024-01-16T00:43:41;3.90;;;3.00;;
13785;SDS011;47474;48.824;9.384;2024-01-16T00:46:08;3.37;;;2.97;;
13785;SDS011;47474;48.824;9.384;2024-01-16T00:48:35;5.37;;;3.57;;
13785;SDS011;47474;48.824;9.384;2024-01-16T00:51:01;4.30;;;3.60;;
13785;SDS011;47474;48.824;9.384;2024-01-16T00:53:28;4.53;;;3.43;;
13785;SDS011;47474;48.824;9.384;2024-01-16T00:55:55;5.60;;;3.33;;
13785;SDS011;47474;48.824;9.384;2024-01-16T00:58:22;4.00;;;3.10;;
13785;SDS011;47474;48.824;9.384;2024-01-16T01:00:49;3.93;;;3.57;;
13785;SDS011;47474;48.824;9.384;2024-01-16T01:03:16;5.33;;;3.80;;
13785;SDS011;47474;48.824;9.384;2024-01-16T01:05:42;5.90;;;4.20;;
13785;SDS011;47474;48.824;9.384;2024-01-16T01:08:09;4.90;;;3.43;;
13785;SDS011;47474;48.824;9.384;2024-01-16T01:10:35;5.53;;;3.53;;
13785;SDS011;47474;48.824;9.384;2024-01-16T01:13:02;4.57;;;3.30;;
13785;SDS011;47474;48.824;9.384;2024-01-16T01:15:30;5.27;;;3.37;;
13785;SDS011;47474;48.824;9.384;2024-01-16T01:17:56;6.33;;;3.60;;
13785;SDS011;47474;48.824;9.384;2024-01-16T01:20:23;5.53;;;3.80;;
13785;SDS011;47474;48.824;9.384;2024-01-16T01:22:49;4.77;;;3.83;;
13785;SDS011;47474;48.824;9.384;2024-01-16T01:25:16;5.70;;;3.90;;
13785;SDS011;47474;48.824;9.384;2024-01-16T01:27:42;4.83;;;3.50;;
13785;SDS011;47474;48.824;9.384;2024-01-16T01:30:09;5.43;;;3.70;;
13785;SDS011;47474;48.824;9.384;2024-01-16T01:32:37;4.77;;;3.17;;
13785;SDS011;47474;48.824;9.384;2024-01-16T01:35:05;5.20;;;3.87;;
13785;SDS011;47474;48.824;9.384;2024-01-16T01:37:32;4.20;;;3.70;;
13785;SDS011;47474;48.824;9.384;2024-01-16T01:39:58;4.77;;;3.37;;
13785;SDS011;47474;48.824;9.384;2024-01-16T01:42:25;6.13;;;4.07;;
13785;SDS011;47474;48.824;9.384;2024-01-16T01:44:51;5.13;;;3.37;;
13785;SDS011;47474;48.824;9.384;2024-01-16T01:47:18;4.73;;;3.50;;
13785;SDS011;47474;48.824;9.384;2024-01-16T01:49:46;4.47;;;3.37;;
13785;SDS011;47474;48.824;9.384;2024-01-16T01:52:12;5.80;;;3.50;;
13785;SDS011;47474;48.824;9.384;2024-01-16T01:54:39;6.33;;;3.67;;
13785;SDS011;47474;48.824;9.384;2024-01-16T01:57:07;4.27;;;3.87;;
13785;SDS011;47474;48.824;9.384;2024-01-16T01:59:34;4.47;;;3.50;;
13785;SDS011;47474;48.824;9.384;2024-01-16T02:02:00;3.97;;;3.43;;
13785;SDS011;47474;48.824;9.384;2024-01-16T02:04:27;4.87;;;3.33;;
13785;SDS011;47474;48.824;9.384;2024-01-16T02:06:55;5.10;;;4.60;;
13785;SDS011;47474;48.824;9.384;2024-01-16T02:09:22;5.43;;;3.40;;
13785;SDS011;47474;48.824;9.384;2024-01-16T02:11:48;5.67;;;3.40;;
13785;SDS011;47474;48.824;9.384;2024-01-16T02:14:15;5.90;;;3.93;;
13785;SDS011;47474;48.824;9.384;2024-01-16T02:16:42;4.87;;;3.67;;
13785;SDS011;47474;48.824;9.384;2024-01-16T02:19:10;5.87;;;3.20;;
13785;SDS011;47474;48.824;9.384;2024-01-16T02:21:36;4.60;;;3.30;;
13785;SDS011;47474;48.824;9.384;2024-01-16T02:24:06;4.00;;;2.97;;
13785;SDS011;47474;48.824;9.384;2024-01-16T02:26:33;4.00;;;3.60;;
13785;SDS011;47474;48.824;9.384;2024-01-16T02:29:00;3.43;;;2.83;;
13785;SDS011;47474;48.824;9.384;2024-01-16T02:31:27;5.80;;;3.60;;
13785;SDS011;47474;48.824;9.384;2024-01-16T02:33:53;5.20;;;3.50;;
13785;SDS011;47474;48.824;9.384;2024-01-16T02:36:19;5.40;;;3.60;;
13785;SDS011;47474;48.824;9.384;2024-01-16T02:38:46;3.53;;;3.00;;
13785;SDS011;47474;48.824;9.384;2024-01-16T02:41:14;5.87;;;3.20;;
13785;SDS011;47474;48.824;9.384;2024-01-16T02:43:42;5.97;;;3.80;;
13785;SDS011;47474;48.824;9.384;2024-01-16T02:46:08;4.53;;;3.30;;
13785;SDS011;47474;48.824;9.384;2024-01-16T02:48:35;4.57;;;3.27;;
13785;SDS011;47474;48.824;9.384;2024-01-16T02:51:01;3.83;;;3.03;;
13785;SDS011;47474;48.824;9.384;2024-01-16T02:53:28;4.43;;;3.53;;
13785;SDS011;47474;48.824;9.384;2024-01-16T02:55:55;4.57;;;3.70;;
13785;SDS011;47474;48.824;9.384;2024-01-16T02:58:24;5.77;;;3.53;;
13785;SDS011;47474;48.824;9.384;2024-01-16T03:00:51;6.50;;;4.00;;
13785;SDS011;47474;48.824;9.384;2024-01-16T03:03:17;4.73;;;3.67;;
13785;SDS011;47474;48.824;9.384;2024-01-16T03:05:45;4.23;;;3.47;;
13785;SDS011;47474;48.824;9.384;2024-01-16T03:08:11;4.23;;;3.40;;
13785;SDS011;47474;48.824;9.384;2024-01-16T03:10:38;4.70;;;3.33;;
13785;SDS011;47474;48.824;9.384;2024-01-16T03:13:04;6.27;;;4.10;;
13785;SDS011;47474;48.824;9.384;2024-01-16T03:15:32;4.30;;;3.63;;
13785;SDS011;47474;48.824;9.384;2024-01-16T03:17:59;5.03;;;3.37;;
13785;SDS011;47474;48.824;9.384;2024-01-16T03:20:26;4.90;;;3.60;;
13785;SDS011;47474;48.824;9.384;2024-01-16T03:22:52;5.53;;;3.40;;
13785;SDS011;47474;48.824;9.384;2024-01-16T03:25:19;8.10;;;3.63;;
13785;SDS011;47474;48.824;9.384;2024-01-16T03:27:46;4.87;;;3.87;;
13785;SDS011;47474;48.824;9.384;2024-01-16T03:30:13;4.77;;;3.47;;
13785;SDS011;47474;48.824;9.384;2024-01-16T03:32:41;4.23;;;3.20;;
13785;SDS011;47474;48.824;9.384;2024-01-16T03:35:07;7.53;;;3.23;;
13785;SDS011;47474;48.824;9.384;2024-01-16T03:37:34;5.50;;;3.43;;
13785;SDS011;47474;48.824;9.384;2024-01-16T03:40:00;6.70;;;3.20;;
13785;SDS011;47474;48.824;9.384;2024-01-16T03:42:27;5.03;;;3.80;;
13785;SDS011;47474;48.824;9.384;2024-01-16T03:44:53;4.73;;;3.40;;
13785;SDS011;47474;48.824;9.384;2024-01-16T03:47:20;4.70;;;3.43;;
13785;SDS011;47474;48.824;9.384;2024-01-16T03:49:48;4.57;;;3.40;;
13785;SDS011;47474;48.824;9.384;2024-01-16T03:52:15;4.17;;;3.33;;
13785;SDS011;47474;48.824;9.384;2024-01-16T03:54:42;6.60;;;3.53;;
13785;SDS011;47474;48.824;9.384;2024-01-16T03:57:08;4.37;;;3.23;;
13785;SDS011;47474;48.824;9.384;2024-01-16T03:59:36;6.03;;;3.50;;
13785;SDS011;47474;48.824;9.384;2024-01-16T04:02:03;5.70;;;3.93;;
13785;SDS011;47474;48.824;9.384;2024-01-16T04:04:29;6.07;;;3.63;;
13785;SDS011;47474;48.824;9.384;2024-01-16T04:06:57;4.53;;;3.27;;
13785;SDS011;47474;48.824;9.384;2024-01-16T04:09:24;6.10;;;3.90;;
13785;SDS011;47474;48.824;9.384;2024-01-16T04:11:50;7.40;;;3.80;;
13785;SDS011;47474;48.824;9.384;2024-01-16T04:14:17;6.13;;;2.90;;
13785;SDS011;47474;48.824;9.384;2024-01-16T04:16:43;4.67;;;3.53;;
13785;SDS011;47474;48.824;9.384;2024-01-16T04:19:10;6.47;;;3.80;;
13785;SDS011;47474;48.824;9.384;2024-01-16T04:21:36;4.00;;;3.60;;
13785;SDS011;47474;48.824;9.384;2024-01-16T04:24:04;5.57;;;3.57;;
13785;SDS011;47474;48.824;9.384;2024-01-16T04:26:31;5.03;;;3.43;;
13785;SDS011;47474;48.824;9.384;2024-01-16T04:28:57;4.80;;;3.33;;
13785;SDS011;47474;48.824;9.384;2024-01-16T04:31:25;5.37;;;3.27;;
13785;SDS011;47474;48.824;9.384;2024-01-16T04:33:51;4.73;;;3.63;;
13785;SDS011;47474;48.824;9.384;2024-01-16T04:36:18;5.43;;;3.30;;
13785;SDS011;47474;48.824;9.384;2024-01-16T04:38:44;5.97;;;3.70;;
13785;SDS011;47474;48.824;9.384;2024-01-16T04:41:12;4.57;;;3.43;;
13785;SDS011;47474;48.824;9.384;2024-01-16T04:43:38;4.47;;;3.43;;
13785;SDS011;47474;48.824;9.384;2024-01-16T04:46:05;6.40;;;3.43;;
13785;SDS011;47474;48.824;9.384;2024-01-16T04:48:31;5.00;;;3.43;;
13785;SDS011;47474;48.824;9.384;2024-01-16T04:50:58;4.43;;;3.37;;
13785;SDS011;47474;48.824;9.384;2024-01-16T04:53:24;4.13;;;3.23;;
13785;SDS011;47474;48.824;9.384;2024-01-16T04:55:51;5.77;;;3.70;;
13785;SDS011;47474;48.824;9.384;2024-01-16T04:58:18;9.00;;;3.60;;
13785;SDS011;47474;48.824;9.384;2024-01-16T05:00:45;6.07;;;3.20;;
13785;SDS011;47474;48.824;9.384;2024-01-16T05:03:11;6.53;;;3.70;;
13785;SDS011;47474;48.824;9.384;2024-01-16T05:05:38;5.77;;;3.47;;
13785;SDS011;47474;48.824;9.384;2024-01-16T05:08:04;6.47;;;3.70;;
13785;SDS011;47474;48.824;9.384;2024-01-16T05:10:31;7.27;;;3.30;;
13785;SDS011;47474;48.824;9.384;2024-01-16T05:12:57;6.33;;;3.67;;
13785;SDS011;47474;48.824;9.384;2024-01-16T05:15:25;7.53;;;3.67;;
13785;SDS011;47474;48.824;9.384;2024-01-16T05:17:52;6.23;;;3.43;;
13785;SDS011;47474;48.824;9.384;2024-01-16T05:20:19;5.83;;;3.63;;
13785;SDS011;47474;48.824;9.384;2024-01-16T05:22:46;7.03;;;3.40;;
13785;SDS011;47474;48.824;9.384;2024-01-16T05:25:12;4.97;;;3.53;;
13785;SDS011;47474;48.824;9.384;2024-01-16T05:27:39;3.33;;;2.73;;
13785;SDS011;47474;48.824;9.384;2024-01-16T05:30:06;3.97;;;3.30;;
13785;SDS011;47474;48.824;9.384;2024-01-16T05:32:34;8.83;;;3.63;;
13785;SDS011;47474;48.824;9.384;2024-01-16T05:35:01;4.43;;;3.20;;
13785;SDS011;47474;48.824;9.384;2024-01-16T05:37:28;5.77;;;4.00;;
13785;SDS011;47474;48.824;9.384;2024-01-16T05:39:54;4.33;;;3.67;;
13785;SDS011;47474;48.824;9.384;2024-01-16T05:42:21;4.60;;;3.47;;
13785;SDS011;47474;48.824;9.384;2024-01-16T05:44:47;5.53;;;3.10;;
13785;SDS011;47474;48.824;9.384;2024-01-16T05:47:14;9.73;;;4.83;;
13785;SDS011;47474;48.824;9.384;2024-01-16T05:49:42;6.63;;;4.80;;
13785;SDS011;47474;48.824;9.384;2024-01-16T05:52:08;6.40;;;4.90;;
13785;SDS011;47474;48.824;9.384;2024-01-16T05:54:35;9.80;;;6.20;;
13785;SDS011;47474;48.824;9.384;2024-01-16T05:57:01;19.03;;;8.57;;
13785;SDS011;47474;48.824;9.384;2024-01-16T05:59:28;29.73;;;13.07;;
13785;SDS011;47474;48.824;9.384;2024-01-16T06:01:55;37.73;;;14.20;;
13785;SDS011;47474;48.824;9.384;2024-01-16T06:04:21;23.73;;;10.50;;
13785;SDS011;47474;48.824;9.384;2024-01-16T06:06:49;20.70;;;9.30;;
13785;SDS011;47474;48.824;9.384;2024-01-16T06:09:15;16.10;;;7.47;;
13785;SDS011;47474;48.824;9.384;2024-01-16T06:11:43;10.43;;;5.07;;
13785;SDS011;47474;48.824;9.384;2024-01-16T06:14:09;7.83;;;4.00;;
13785;SDS011;47474;48.824;9.384;2024-01-16T06:16:37;6.57;;;4.33;;
13785;SDS011;47474;48.824;9.384;2024-01-16T06:19:03;5.20;;;3.23;;
13785;SDS011;47474;48.824;9.384;2024-01-16T06:21:30;12.57;;;6.37;;
13785;SDS011;47474;48.824;9.384;2024-01-16T06:23:58;10.57;;;5.83;;
13785;SDS011;47474;48.824;9.384;2024-01-16T06:26:25;11.00;;;5.20;;
13785;SDS011;47474;48.824;9.384;2024-01-16T06:28:51;5.67;;;4.80;;
13785;SDS011;47474;48.824;9.384;2024-01-16T06:31:18;8.27;;;3.93;;
13785;SDS011;47474;48.824;9.384;2024-01-16T06:33:44;7.40;;;4.07;;
13785;SDS011;47474;48.824;9.384;2024-01-16T06:36:11;7.30;;;4.40;;
13785;SDS011;47474;48.824;9.384;2024-01-16T06:38:38;7.17;;;3.73;;
13785;SDS011;47474;48.824;9.384;2024-01-16T06:41:06;5.17;;;3.40;;
13785;SDS011;47474;48.824;9.384;2024-01-16T06:43:32;3.97;;;3.10;;
13785;SDS011;47474;48.824;9.384;2024-01-16T06:45:59;5.73;;;3.30;;
13785;SDS011;47474;48.824;9.384;2024-01-16T06:48:25;4.90;;;3.10;;
13785;SDS011;47474;48.824;9.384;2024-01-16T06:50:52;5.57;;;3.00;;
13785;SDS011;47474;48.824;9.384;2024-01-16T06:53:18;5.40;;;3.30;;
13785;SDS011;47474;48.824;9.384;2024-01-16T06:55:45;5.93;;;3.10;;
13785;SDS011;47474;48.824;9.384;2024-01-16T06:58:13;3.87;;;3.10;;
13785;SDS011;47474;48.824;9.384;2024-01-16T07:00:39;4.63;;;2.80;;
13785;SDS011;47474;48.824;9.384;2024-01-16T07:03:06;5.13;;;3.20;;
13785;SDS011;47474;48.824;9.384;2024-01-16T07:05:33;5.07;;;2.70;;
13785;SDS011;47474;48.824;9.384;2024-01-16T07:07:59;4.13;;;2.93;;
13785;SDS011;47474;48.824;9.384;2024-01-16T07:10:26;5.90;;;3.20;;
13785;SDS011;47474;48.824;9.384;2024-01-16T07:12:52;4.20;;;3.17;;
13785;SDS011;47474;48.824;9.384;2024-01-16T07:15:20;4.17;;;3.13;;
13785;SDS011;47474;48.824;9.384;2024-01-16T07:17:46;5.53;;;2.73;;
13785;SDS011;47474;48.824;9.384;2024-01-16T07:20:13;4.20;;;2.87;;
13785;SDS011;47474;48.824;9.384;2024-01-16T07:22:39;4.00;;;3.43;;
13785;SDS011;47474;48.824;9.384;2024-01-16T07:25:06;4.80;;;3.37;;
13785;SDS011;47474;48.824;9.384;2024-01-16T07:27:33;3.80;;;2.83;;
13785;SDS011;47474;48.824;9.384;2024-01-16T07:29:59;4.97;;;3.37;;
13785;SDS011;47474;48.824;9.384;2024-01-16T07:32:27;5.17;;;3.17;;
13785;SDS011;47474;48.824;9.384;2024-01-16T07:34:53;4.13;;;3.30;;
13785;SDS011;47474;48.824;9.384;2024-01-16T07:37:20;3.33;;;2.77;;
13785;SDS011;47474;48.824;9.384;2024-01-16T07:39:46;4.27;;;3.23;;
13785;SDS011;47474;48.824;9.384;2024-01-16T07:42:13;3.50;;;3.20;;
13785;SDS011;47474;48.824;9.384;2024-01-16T07:44:39;3.33;;;2.83;;
13785;SDS011;47474;48.824;9.384;2024-01-16T07:47:06;3.60;;;2.67;;
13785;SDS011;47474;48.824;9.384;2024-01-16T07:49:34;7.67;;;2.83;;
13785;SDS011;47474;48.824;9.384;2024-01-16T07:52:00;5.80;;;4.07;;
13785;SDS011;47474;48.824;9.384;2024-01-16T07:54:27;5.37;;;3.50;;
13785;SDS011;47474;48.824;9.384;2024-01-16T07:56:53;6.03;;;3.63;;
13785;SDS011;47474;48.824;9.384;2024-01-16T07:59:20;4.33;;;3.47;;
13785;SDS011;47474;48.824;9.384;2024-01-16T08:01:46;4.07;;;2.80;;
13785;SDS011;47474;48.824;9.384;2024-01-16T08:04:13;5.53;;;2.67;;
13785;SDS011;47474;48.824;9.384;2024-01-16T08:06:41;4.10;;;2.73;;
13785;SDS011;47474;48.824;9.384;2024-01-16T08:09:08;4.53;;;2.53;;
13785;SDS011;47474;48.824;9.384;2024-01-16T08:11:37;2.73;;;2.40;;
13785;SDS011;47474;48.824;9.384;2024-01-16T08:14:04;5.47;;;3.17;;
13785;SDS011;47474;48.824;9.384;2024-01-16T08:16:31;8.73;;;3.47;;
13785;SDS011;47474;48.824;9.384;2024-01-16T08:18:57;4.87;;;3.30;;
13785;SDS011;47474;48.824;9.384;2024-01-16T08:21:23;5.40;;;3.10;;
13785;SDS011;47474;48.824;9.384;2024-01-16T08:23:52;6.00;;;3.13;;
13785;SDS011;47474;48.824;9.384;2024-01-16T08:26:18;7.03;;;3.50;;
13785;SDS011;47474;48.824;9.384;2024-01-16T08:28:45;7.60;;;3.07;;
13785;SDS011;47474;48.824;9.384;2024-01-16T08:31:11;3.73;;;2.50;;
13785;SDS011;47474;48.824;9.384;2024-01-16T08:33:38;3.90;;;2.97;;
13785;SDS011;47474;48.824;9.384;2024-01-16T08:36:04;4.30;;;2.50;;
13785;SDS011;47474;48.824;9.384;2024-01-16T08:38:31;3.60;;;2.67;;
13785;SDS011;47474;48.824;9.384;2024-01-16T08:40:59;3.27;;;2.60;;
13785;SDS011;47474;48.824;9.384;2024-01-16T08:43:25;4.53;;;2.93;;
13785;SDS011;47474;48.824;9.384;2024-01-16T08:45:52;4.63;;;2.60;;
13785;SDS011;47474;48.824;9.384;2024-01-16T08:48:18;4.70;;;2.83;;
13785;SDS011;47474;48.824;9.384;2024-01-16T08:50:45;4.23;;;2.70;;
13785;SDS011;47474;48.824;9.384;2024-01-16T08:53:11;4.50;;;2.67;;
13785;SDS011;47474;48.824;9.384;2024-01-16T08:55:38;6.00;;;3.10;;
13785;SDS011;47474;48.824;9.384;2024-01-16T08:58:05;5.17;;;3.47;;
13785;SDS011;47474;48.824;9.384;2024-01-16T09:00:32;4.63;;;3.17;;
13785;SDS011;47474;48.824;9.384;2024-01-16T09:02:59;5.30;;;3.23;;
13785;SDS011;47474;48.824;9.384;2024-01-16T09:05:26;6.23;;;3.27;;
13785;SDS011;47474;48.824;9.384;2024-01-16T09:07:53;4.57;;;3.20;;
13785;SDS011;47474;48.824;9.384;2024-01-16T09:10:19;5.30;;;2.83;;
13785;SDS011;47474;48.824;9.384;2024-01-16T09:12:46;4.63;;;2.97;;
13785;SDS011;47474;48.824;9.384;2024-01-16T09:15:15;5.47;;;3.73;;
13785;SDS011;47474;48.824;9.384;2024-01-16T09:17:41;5.40;;;3.70;;
13785;SDS011;47474;48.824;9.384;2024-01-16T09:20:08;3.40;;;2.57;;
13785;SDS011;47474;48.824;9.384;2024-01-16T09:22:35;3.70;;;2.80;;
13785;SDS011;47474;48.824;9.384;2024-01-16T09:25:01;4.97;;;3.50;;
13785;SDS011;47474;48.824;9.384;2024-01-16T09:27:28;4.33;;;2.97;;
13785;SDS011;47474;48.824;9.384;2024-01-16T09:29:54;6.07;;;2.93;;
13785;SDS011;47474;48.824;9.384;2024-01-16T09:32:22;3.50;;;3.20;;
13785;SDS011;47474;48.824;9.384;2024-01-16T09:34:49;5.27;;;3.10;;
13785;SDS011;47474;48.824;9.384;2024-01-16T09:37:15;3.40;;;2.87;;
13785;SDS011;47474;48.824;9.384;2024-01-16T09:39:42;5.97;;;2.53;;
13785;SDS011;47474;48.824;9.384;2024-01-16T09:42:08;4.97;;;2.90;;
13785;SDS011;47474;48.824;9.384;2024-01-16T09:44:35;3.73;;;3.23;;
13785;SDS011;47474;48.824;9.384;2024-01-16T09:47:01;4.73;;;2.97;;
13785;SDS011;47474;48.824;9.384;2024-01-16T09:49:30;3.47;;;2.70;;
13785;SDS011;47474;48.824;9.384;2024-01-16T09:51:57;5.57;;;3.07;;
13785;SDS011;47474;48.824;9.384;2024-01-16T09:54:24;4.17;;;2.67;;
13785;SDS011;47474;48.824;9.384;2024-01-16T09:56:51;2.97;;;2.63;;
13785;SDS011;47474;48.824;9.384;2024-01-16T09:59:20;4.80;;;2.70;;
13785;SDS011;47474;48.824;9.384;2024-01-16T10:01:47;3.53;;;2.80;;
13785;SDS011;47474;48.824;9.384;2024-01-16T10:04:15;3.80;;;2.53;;
13785;SDS011;47474;48.824;9.384;2024-01-16T10:06:43;5.33;;;2.90;;
13785;SDS011;47474;48.824;9.384;2024-01-16T10:09:11;5.97;;;2.63;;
13785;SDS011;47474;48.824;9.384;2024-01-16T10:11:38;4.27;;;2.43;;
13785;SDS011;47474;48.824;9.384;2024-01-16T10:14:05;6.17;;;2.70;;
13785;SDS011;47474;48.824;9.384;2024-01-16T10:19:23;3.53;;;2.53;;
13785;SDS011;47474;48.824;9.384;2024-01-16T10:21:51;4.17;;;2.47;;
13785;SDS011;47474;48.824;9.384;2024-01-16T10:24:18;3.63;;;2.93;;
13785;SDS011;47474;48.824;9.384;2024-01-16T10:26:44;3.97;;;2.33;;
13785;SDS011;47474;48.824;9.384;2024-01-16T10:29:11;6.37;;;2.60;;
13785;SDS011;47474;48.824;9.384;2024-01-16T10:31:38;4.07;;;3.00;;
13785;SDS011;47474;48.824;9.384;2024-01-16T10:34:13;7.43;;;3.20;;
13785;SDS011;47474;48.824;9.384;2024-01-16T10:36:45;5.73;;;2.67;;
13785;SDS011;47474;48.824;9.384;2024-01-16T10:39:13;5.07;;;3.93;;
13785;SDS011;47474;48.824;9.384;2024-01-16T10:41:40;3.53;;;2.90;;
13785;SDS011;47474;48.824;9.384;2024-01-16T10:44:07;6.67;;;3.30;;
13785;SDS011;47474;48.824;9.384;2024-01-16T10:46:34;4.10;;;2.70;;
13785;SDS011;47474;48.824;9.384;2024-01-16T10:49:02;8.50;;;3.50;;
13785;SDS011;47474;48.824;9.384;2024-01-16T10:51:29;8.30;;;3.47;;
13785;SDS011;47474;48.824;9.384;2024-01-16T10:53:57;5.17;;;2.80;;
13785;SDS011;47474;48.824;9.384;2024-01-16T10:56:26;3.63;;;2.43;;
13785;SDS011;47474;48.824;9.384;2024-01-16T10:58:57;3.50;;;2.60;;
13785;SDS011;47474;48.824;9.384;2024-01-16T11:01:27;3.63;;;2.40;;
13785;SDS011;47474;48.824;9.384;2024-01-16T11:03:54;4.07;;;2.83;;
13785;SDS011;47474;48.824;9.384;2024-01-16T11:06:22;4.27;;;2.70;;
13785;SDS011;47474;48.824;9.384;2024-01-16T11:08:49;5.00;;;2.40;;
13785;SDS011;47474;48.824;9.384;2024-01-16T11:11:16;5.50;;;2.57;;
13785;SDS011;47474;48.824;9.384;2024-01-16T11:13:45;4.13;;;2.33;;
13785;SDS011;47474;48.824;9.384;2024-01-16T11:16:12;4.53;;;2.50;;
13785;SDS011;47474;48.824;9.384;2024-01-16T11:18:38;3.07;;;2.60;;
13785;SDS011;47474;48.824;9.384;2024-01-16T11:21:06;4.40;;;2.50;;
13785;SDS011;47474;48.824;9.384;2024-01-16T11:23:33;5.37;;;2.87;;
13785;SDS011;47474;48.824;9.384;2024-01-16T11:26:01;4.93;;;2.60;;
13785;SDS011;47474;48.824;9.384;2024-01-16T11:28:52;6.95;;;2.78;;
13785;SDS011;47474;48.824;9.384;2024-01-16T11:31:28;3.17;;;2.88;;
13785;SDS011;47474;48.824;9.384;2024-01-16T11:33:58;4.90;;;2.97;;
13785;SDS011;47474;48.824;9.384;2024-01-16T11:39:16;5.50;;;3.70;;
13785;SDS011;47474;48.824;9.384;2024-01-16T11:41:50;4.72;;;3.10;;
13785;SDS011;47474;48.824;9.384;2024-01-16T11:44:38;6.28;;;3.28;;
13785;SDS011;47474;48.824;9.384;2024-01-16T11:47:06;4.10;;;2.53;;
13785;SDS011;47474;48.824;9.384;2024-01-16T11:49:33;4.35;;;2.40;;
13785;SDS011;47474;48.824;9.384;2024-01-16T11:51:59;5.85;;;2.42;;
13785;SDS011;47474;48.824;9.384;2024-01-16T11:54:26;2.67;;;2.30;;
13785;SDS011;47474;48.824;9.384;2024-01-16T11:57:20;3.17;;;1.80;;
13785;SDS011;47474;48.824;9.384;2024-01-16T11:59:58;4.68;;;2.35;;
13785;SDS011;47474;48.824;9.384;2024-01-16T12:02:34;2.90;;;1.77;;
13785;SDS011;47474;48.824;9.384;2024-01-16T12:05:05;2.03;;;1.83;;
13785;SDS011;47474;48.824;9.384;2024-01-16T12:07:42;3.53;;;1.98;;
13785;SDS011;47474;48.824;9.384;2024-01-16T12:10:09;3.90;;;2.70;;
13785;SDS011;47474;48.824;9.384;2024-01-16T12:12:35;3.63;;;2.15;;
13785;SDS011;47474;48.824;9.384;2024-01-16T12:15:03;3.60;;;2.42;;
13785;SDS011;47474;48.824;9.384;2024-01-16T12:17:31;3.67;;;2.17;;
13785;SDS011;47474;48.824;9.384;2024-01-16T12:19:58;6.18;;;3.15;;
13785;SDS011;47474;48.824;9.384;2024-01-16T12:22:24;3.00;;;1.83;;
13785;SDS011;47474;48.824;9.384;2024-01-16T12:24:55;2.92;;;1.85;;
13785;SDS011;47474;48.824;9.384;2024-01-16T12:27:22;3.83;;;2.50;;
13785;SDS011;47474;48.824;9.384;2024-01-16T12:29:48;3.28;;;2.42;;
13785;SDS011;47474;48.824;9.384;2024-01-16T12:32:18;2.47;;;1.85;;
13785;SDS011;47474;48.824;9.384;2024-01-16T12:34:47;3.10;;;2.00;;
13785;SDS011;47474;48.824;9.384;2024-01-16T12:37:14;5.95;;;2.20;;
13785;SDS011;47474;48.824;9.384;2024-01-16T12:39:39;3.08;;;1.70;;
13785;SDS011;47474;48.824;9.384;2024-01-16T12:42:06;4.50;;;2.40;;
13785;SDS011;47474;48.824;9.384;2024-01-16T12:44:34;4.87;;;2.37;;
13785;SDS011;47474;48.824;9.384;2024-01-16T12:47:01;4.07;;;2.07;;
13785;SDS011;47474;48.824;9.384;2024-01-16T12:49:29;2.13;;;1.40;;
13785;SDS011;47474;48.824;9.384;2024-01-16T12:54:44;5.33;;;2.87;;
13785;SDS011;47474;48.824;9.384;2024-01-16T12:57:10;1.40;;;1.23;;
13785;SDS011;47474;48.824;9.384;2024-01-16T12:59:44;1.70;;;1.00;;
13785;SDS011;47474;48.824;9.384;2024-01-16T13:02:18;2.20;;;1.73;;
13785;SDS011;47474;48.824;9.384;2024-01-16T13:04:48;2.60;;;1.60;;
13785;SDS011;47474;48.824;9.384;2024-01-16T13:07:15;2.67;;;1.40;;
13785;SDS011;47474;48.824;9.384;2024-01-16T13:09:42;4.93;;;3.10;;
13785;SDS011;47474;48.824;9.384;2024-01-16T13:12:09;2.70;;;2.47;;
13785;SDS011;47474;48.824;9.384;2024-01-16T13:14:36;5.37;;;1.70;;
13785;SDS011;47474;48.824;9.384;2024-01-16T13:17:03;3.30;;;1.60;;
13785;SDS011;47474;48.824;9.384;2024-01-16T13:19:31;1.93;;;1.53;;
13785;SDS011;47474;48.824;9.384;2024-01-16T13:22:00;3.17;;;2.03;;
13785;SDS011;47474;48.824;9.384;2024-01-16T13:24:26;2.00;;;1.57;;
13785;SDS011;47474;48.824;9.384;2024-01-16T13:26:52;2.00;;;1.63;;
13785;SDS011;47474;48.824;9.384;2024-01-16T13:29:19;3.93;;;1.60;;
13785;SDS011;47474;48.824;9.384;2024-01-16T13:31:45;2.80;;;1.97;;
13785;SDS011;47474;48.824;9.384;2024-01-16T13:34:12;2.27;;;1.70;;
13785;SDS011;47474;48.824;9.384;2024-01-16T13:36:39;4.33;;;1.80;;
13785;SDS011;47474;48.824;9.384;2024-01-16T13:39:09;3.17;;;1.83;;
13785;SDS011;47474;48.824;9.384;2024-01-16T13:41:37;2.50;;;1.80;;
13785;SDS011;47474;48.824;9.384;2024-01-16T13:44:04;3.10;;;1.50;;
13785;SDS011;47474;48.824;9.384;2024-01-16T13:46:31;2.00;;;1.50;;
13785;SDS011;47474;48.824;9.384;2024-01-16T13:48:57;4.20;;;1.83;;
13785;SDS011;47474;48.824;9.384;2024-01-16T13:51:24;2.08;;;1.70;;
13785;SDS011;47474;48.824;9.384;2024-01-16T13:53:51;3.38;;;1.60;;
13785;SDS011;47474;48.824;9.384;2024-01-16T13:56:19;2.33;;;1.40;;
13785;SDS011;47474;48.824;9.384;2024-01-16T13:58:46;2.38;;;1.50;;
13785;SDS011;47474;48.824;9.384;2024-01-16T14:01:12;3.28;;;1.67;;
13785;SDS011;47474;48.824;9.384;2024-01-16T14:03:39;4.40;;;1.70;;
13785;SDS011;47474;48.824;9.384;2024-01-16T14:06:05;1.75;;;1.50;;
13785;SDS011;47474;48.824;9.384;2024-01-16T14:08:33;1.83;;;1.52;;
13785;SDS011;47474;48.824;9.384;2024-01-16T14:10:59;14.55;;;9.77;;
13785;SDS011;47474;48.824;9.384;2024-01-16T14:13:27;26.40;;;15.90;;
13785;SDS011;47474;48.824;9.384;2024-01-16T14:15:54;6.57;;;4.33;;
13785;SDS011;47474;48.824;9.384;2024-01-16T14:18:22;2.90;;;2.60;;
13785;SDS011;47474;48.824;9.384;2024-01-16T14:20:48;3.27;;;2.10;;
13785;SDS011;47474;48.824;9.384;2024-01-16T14:23:15;4.10;;;2.10;;
13785;SDS011;47474;48.824;9.384;2024-01-16T14:25:41;3.27;;;1.50;;
13785;SDS011;47474;48.824;9.384;2024-01-16T14:28:10;3.27;;;1.97;;
13785;SDS011;47474;48.824;9.384;2024-01-16T14:30:38;4.43;;;2.10;;
13785;SDS011;47474;48.824;9.384;2024-01-16T14:33:05;6.23;;;2.20;;
13785;SDS011;47474;48.824;9.384;2024-01-16T14:35:33;3.07;;;2.23;;
13785;SDS011;47474;48.824;9.384;2024-01-16T14:37:59;2.97;;;1.83;;
13785;SDS011;47474;48.824;9.384;2024-01-16T14:40:26;7.70;;;4.93;;
13785;SDS011;47474;48.824;9.384;2024-01-16T14:42:53;2.70;;;2.10;;
13785;SDS011;47474;48.824;9.384;2024-01-16T14:45:21;3.23;;;2.00;;
13785;SDS011;47474;48.824;9.384;2024-01-16T14:47:50;2.50;;;2.10;;
13785;SDS011;47474;48.824;9.384;2024-01-16T14:50:18;4.33;;;2.50;;
13785;SDS011;47474;48.824;9.384;2024-01-16T14:52:47;4.27;;;2.47;;
13785;SDS011;47474;48.824;9.384;2024-01-16T14:55:14;4.40;;;2.07;;
13785;SDS011;47474;48.824;9.384;2024-01-16T14:57:40;5.30;;;2.10;;